sensor_id;sensor_type;location;lat;lon;timestamp;P1;durP1;ratioP1;P2;durP2;ratioP2
4186;SDS011;2107;52.306;10.484;2024-02-23T00:01:31;0.30;;;0.30;;
4186;SDS011;2107;52.306;10.484;2024-02-23T00:03:59;0.30;;;0.30;;
4186;SDS011;2107;52.306;10.484;2024-02-23T00:06:27;0.30;;;0.30;;
4186;SDS011;2107;52.306;10.484;2024-02-23T00:08:54;0.50;;;0.50;;
4186;SDS011;2107;52.306;10.484;2024-02-23T00:11:21;0.47;;;0.47;;
4186;SDS011;2107;52.306;10.484;2024-02-23T00:13:48;0.40;;;0.40;;
4186;SDS011;2107;52.306;10.484;2024-02-23T00:16:15;0.40;;;0.40;;
4186;SDS011;2107;52.306;10.484;2024-02-23T00:18:42;0.20;;;0.20;;
4186;SDS011;2107;52.306;10.484;2024-02-23T00:21:10;0.60;;;0.60;;
4186;SDS011;2107;52.306;10.484;2024-02-23T00:23:37;0.60;;;0.60;;
4186;SDS011;2107;52.306;10.484;2024-02-23T00:26:03;0.50;;;0.50;;
4186;SDS011;2107;52.306;10.484;2024-02-23T00:28:30;0.50;;;0.50;;
4186;SDS011;2107;52.306;10.484;2024-02-23T00:30:57;0.77;;;0.77;;
4186;SDS011;2107;52.306;10.484;2024-02-23T00:33:24;0.97;;;0.97;;
4186;SDS011;2107;52.306;10.484;2024-02-23T00:35:51;0.60;;;0.60;;
4186;SDS011;2107;52.306;10.484;2024-02-23T00:38:19;0.57;;;0.57;;
4186;SDS011;2107;52.306;10.484;2024-02-23T00:40:46;0.40;;;0.40;;
4186;SDS011;2107;52.306;10.484;2024-02-23T00:43:13;0.60;;;0.60;;
4186;SDS011;2107;52.306;10.484;2024-02-23T00:45:40;0.77;;;0.77;;
4186;SDS011;2107;52.306;10.484;2024-02-23T00:48:07;0.77;;;0.77;;
4186;SDS011;2107;52.306;10.484;2024-02-23T00:50:34;0.80;;;0.80;;
4186;SDS011;2107;52.306;10.484;2024-02-23T00:53:00;0.63;;;0.63;;
4186;SDS011;2107;52.306;10.484;2024-02-23T00:55:29;0.30;;;0.30;;
4186;SDS011;2107;52.306;10.484;2024-02-23T00:57:56;0.30;;;0.30;;
4186;SDS011;2107;52.306;10.484;2024-02-23T01:00:23;0.30;;;0.30;;
4186;SDS011;2107;52.306;10.484;2024-02-23T01:02:50;0.30;;;0.30;;
4186;SDS011;2107;52.306;10.484;2024-02-23T01:05:17;0.50;;;0.50;;
4186;SDS011;2107;52.306;10.484;2024-02-23T01:07:44;0.60;;;0.60;;
4186;SDS011;2107;52.306;10.484;2024-02-23T01:10:11;0.60;;;0.60;;
4186;SDS011;2107;52.306;10.484;2024-02-23T01:12:39;0.57;;;0.57;;
4186;SDS011;2107;52.306;10.484;2024-02-23T01:15:06;0.50;;;0.50;;
4186;SDS011;2107;52.306;10.484;2024-02-23T01:17:34;0.60;;;0.60;;
4186;SDS011;2107;52.306;10.484;2024-02-23T01:20:01;0.60;;;0.60;;
4186;SDS011;2107;52.306;10.484;2024-02-23T01:22:27;0.50;;;0.50;;
4186;SDS011;2107;52.306;10.484;2024-02-23T01:24:54;0.70;;;0.70;;
4186;SDS011;2107;52.306;10.484;2024-02-23T01:27:21;0.60;;;0.60;;
4186;SDS011;2107;52.306;10.484;2024-02-23T01:29:49;0.60;;;0.60;;
4186;SDS011;2107;52.306;10.484;2024-02-23T01:32:16;0.40;;;0.40;;
4186;SDS011;2107;52.306;10.484;2024-02-23T01:34:43;0.30;;;0.30;;
4186;SDS011;2107;52.306;10.484;2024-02-23T01:37:10;0.30;;;0.30;;
4186;SDS011;2107;52.306;10.484;2024-02-23T01:39:37;0.40;;;0.40;;
4186;SDS011;2107;52.306;10.484;2024-02-23T01:42:04;0.50;;;0.50;;
4186;SDS011;2107;52.306;10.484;2024-02-23T01:44:31;0.60;;;0.60;;
4186;SDS011;2107;52.306;10.484;2024-02-23T01:46:59;0.63;;;0.63;;
4186;SDS011;2107;52.306;10.484;2024-02-23T01:49:26;0.60;;;0.60;;
4186;SDS011;2107;52.306;10.484;2024-02-23T01:51:56;0.80;;;0.80;;
4186;SDS011;2107;52.306;10.484;2024-02-23T01:54:23;0.90;;;0.90;;
4186;SDS011;2107;52.306;10.484;2024-02-23T01:56:51;0.97;;;0.97;;
4186;SDS011;2107;52.306;10.484;2024-02-23T01:59:18;0.70;;;0.70;;
4186;SDS011;2107;52.306;10.484;2024-02-23T02:01:46;1.00;;;1.00;;
4186;SDS011;2107;52.306;10.484;2024-02-23T02:04:14;0.70;;;0.70;;
4186;SDS011;2107;52.306;10.484;2024-02-23T02:06:41;0.70;;;0.70;;
4186;SDS011;2107;52.306;10.484;2024-02-23T02:09:08;0.50;;;0.50;;
4186;SDS011;2107;52.306;10.484;2024-02-23T02:11:44;0.30;;;0.30;;
4186;SDS011;2107;52.306;10.484;2024-02-23T02:14:11;0.60;;;0.60;;
4186;SDS011;2107;52.306;10.484;2024-02-23T02:16:38;0.40;;;0.40;;
4186;SDS011;2107;52.306;10.484;2024-02-23T02:19:05;0.50;;;0.50;;
4186;SDS011;2107;52.306;10.484;2024-02-23T02:21:33;0.60;;;0.60;;
4186;SDS011;2107;52.306;10.484;2024-02-23T02:24:01;0.40;;;0.40;;
4186;SDS011;2107;52.306;10.484;2024-02-23T02:26:28;0.50;;;0.50;;
4186;SDS011;2107;52.306;10.484;2024-02-23T02:28:54;0.50;;;0.50;;
4186;SDS011;2107;52.306;10.484;2024-02-23T02:31:21;0.50;;;0.50;;
4186;SDS011;2107;52.306;10.484;2024-02-23T02:33:48;0.50;;;0.50;;
4186;SDS011;2107;52.306;10.484;2024-02-23T02:36:15;0.50;;;0.50;;
4186;SDS011;2107;52.306;10.484;2024-02-23T02:38:43;0.40;;;0.40;;
4186;SDS011;2107;52.306;10.484;2024-02-23T02:41:10;0.30;;;0.30;;
4186;SDS011;2107;52.306;10.484;2024-02-23T02:43:37;0.47;;;0.47;;
4186;SDS011;2107;52.306;10.484;2024-02-23T02:46:04;0.43;;;0.43;;
4186;SDS011;2107;52.306;10.484;2024-02-23T02:48:30;0.40;;;0.40;;
4186;SDS011;2107;52.306;10.484;2024-02-23T02:50:57;0.50;;;0.50;;
4186;SDS011;2107;52.306;10.484;2024-02-23T02:53:24;0.30;;;0.30;;
4186;SDS011;2107;52.306;10.484;2024-02-23T02:55:52;0.30;;;0.30;;
4186;SDS011;2107;52.306;10.484;2024-02-23T02:58:19;0.30;;;0.30;;
4186;SDS011;2107;52.306;10.484;2024-02-23T03:00:46;0.50;;;0.50;;
4186;SDS011;2107;52.306;10.484;2024-02-23T03:03:13;0.70;;;0.70;;
4186;SDS011;2107;52.306;10.484;2024-02-23T03:05:40;0.40;;;0.40;;
4186;SDS011;2107;52.306;10.484;2024-02-23T03:08:06;0.30;;;0.30;;
4186;SDS011;2107;52.306;10.484;2024-02-23T03:10:33;0.70;;;0.70;;
4186;SDS011;2107;52.306;10.484;2024-02-23T03:13:01;0.90;;;0.90;;
4186;SDS011;2107;52.306;10.484;2024-02-23T03:15:28;0.60;;;0.60;;
4186;SDS011;2107;52.306;10.484;2024-02-23T03:17:55;0.90;;;0.90;;
4186;SDS011;2107;52.306;10.484;2024-02-23T03:20:22;0.40;;;0.40;;
4186;SDS011;2107;52.306;10.484;2024-02-23T03:22:49;0.40;;;0.40;;
4186;SDS011;2107;52.306;10.484;2024-02-23T03:25:16;0.70;;;0.70;;
4186;SDS011;2107;52.306;10.484;2024-02-23T03:27:42;0.60;;;0.60;;
4186;SDS011;2107;52.306;10.484;2024-02-23T03:30:11;0.60;;;0.60;;
4186;SDS011;2107;52.306;10.484;2024-02-23T03:32:38;0.70;;;0.70;;
4186;SDS011;2107;52.306;10.484;2024-02-23T03:35:05;0.40;;;0.40;;
4186;SDS011;2107;52.306;10.484;2024-02-23T03:37:34;0.70;;;0.70;;
4186;SDS011;2107;52.306;10.484;2024-02-23T03:40:01;0.30;;;0.30;;
4186;SDS011;2107;52.306;10.484;2024-02-23T03:42:29;0.40;;;0.40;;
4186;SDS011;2107;52.306;10.484;2024-02-23T03:44:56;0.40;;;0.40;;
4186;SDS011;2107;52.306;10.484;2024-02-23T03:47:25;0.40;;;0.40;;
4186;SDS011;2107;52.306;10.484;2024-02-23T03:49:51;0.40;;;0.40;;
4186;SDS011;2107;52.306;10.484;2024-02-23T03:52:18;0.40;;;0.40;;
4186;SDS011;2107;52.306;10.484;2024-02-23T03:54:45;0.37;;;0.37;;
4186;SDS011;2107;52.306;10.484;2024-02-23T03:57:12;0.30;;;0.30;;
4186;SDS011;2107;52.306;10.484;2024-02-23T03:59:39;0.30;;;0.30;;
4186;SDS011;2107;52.306;10.484;2024-02-23T04:02:06;0.30;;;0.30;;
4186;SDS011;2107;52.306;10.484;2024-02-23T04:04:35;0.30;;;0.30;;
4186;SDS011;2107;52.306;10.484;2024-02-23T04:07:02;0.30;;;0.30;;
4186;SDS011;2107;52.306;10.484;2024-02-23T04:09:29;0.30;;;0.30;;
4186;SDS011;2107;52.306;10.484;2024-02-23T04:11:55;0.30;;;0.30;;
4186;SDS011;2107;52.306;10.484;2024-02-23T04:14:22;0.30;;;0.30;;
4186;SDS011;2107;52.306;10.484;2024-02-23T04:16:49;0.30;;;0.30;;
4186;SDS011;2107;52.306;10.484;2024-02-23T04:19:16;0.30;;;0.30;;
4186;SDS011;2107;52.306;10.484;2024-02-23T04:21:44;0.30;;;0.30;;
4186;SDS011;2107;52.306;10.484;2024-02-23T04:24:11;0.30;;;0.30;;
4186;SDS011;2107;52.306;10.484;2024-02-23T04:26:38;0.30;;;0.30;;
4186;SDS011;2107;52.306;10.484;2024-02-23T04:29:05;0.20;;;0.20;;
4186;SDS011;2107;52.306;10.484;2024-02-23T04:31:32;0.30;;;0.30;;
4186;SDS011;2107;52.306;10.484;2024-02-23T04:33:58;0.40;;;0.40;;
4186;SDS011;2107;52.306;10.484;2024-02-23T04:36:25;0.30;;;0.30;;
4186;SDS011;2107;52.306;10.484;2024-02-23T04:38:54;0.30;;;0.30;;
4186;SDS011;2107;52.306;10.484;2024-02-23T04:41:20;0.40;;;0.40;;
4186;SDS011;2107;52.306;10.484;2024-02-23T04:43:48;0.40;;;0.40;;
4186;SDS011;2107;52.306;10.484;2024-02-23T04:46:15;0.40;;;0.40;;
4186;SDS011;2107;52.306;10.484;2024-02-23T04:48:42;0.40;;;0.40;;
4186;SDS011;2107;52.306;10.484;2024-02-23T04:51:09;0.40;;;0.40;;
4186;SDS011;2107;52.306;10.484;2024-02-23T04:53:36;0.40;;;0.40;;
4186;SDS011;2107;52.306;10.484;2024-02-23T04:56:05;0.50;;;0.50;;
4186;SDS011;2107;52.306;10.484;2024-02-23T04:58:32;0.40;;;0.40;;
4186;SDS011;2107;52.306;10.484;2024-02-23T05:00:59;0.40;;;0.40;;
4186;SDS011;2107;52.306;10.484;2024-02-23T05:03:28;0.40;;;0.40;;
4186;SDS011;2107;52.306;10.484;2024-02-23T05:05:55;0.40;;;0.40;;
4186;SDS011;2107;52.306;10.484;2024-02-23T05:08:21;0.30;;;0.30;;
4186;SDS011;2107;52.306;10.484;2024-02-23T05:10:49;0.30;;;0.30;;
4186;SDS011;2107;52.306;10.484;2024-02-23T05:13:17;0.50;;;0.50;;
4186;SDS011;2107;52.306;10.484;2024-02-23T05:15:44;0.40;;;0.40;;
4186;SDS011;2107;52.306;10.484;2024-02-23T05:18:11;0.40;;;0.40;;
4186;SDS011;2107;52.306;10.484;2024-02-23T05:20:38;0.40;;;0.40;;
4186;SDS011;2107;52.306;10.484;2024-02-23T05:23:05;0.40;;;0.40;;
4186;SDS011;2107;52.306;10.484;2024-02-23T05:25:31;0.40;;;0.40;;
4186;SDS011;2107;52.306;10.484;2024-02-23T05:27:58;0.40;;;0.40;;
4186;SDS011;2107;52.306;10.484;2024-02-23T05:30:27;0.40;;;0.40;;
4186;SDS011;2107;52.306;10.484;2024-02-23T05:32:56;0.50;;;0.50;;
4186;SDS011;2107;52.306;10.484;2024-02-23T05:35:23;0.50;;;0.50;;
4186;SDS011;2107;52.306;10.484;2024-02-23T05:37:50;0.50;;;0.50;;
4186;SDS011;2107;52.306;10.484;2024-02-23T05:40:17;0.40;;;0.40;;
4186;SDS011;2107;52.306;10.484;2024-02-23T05:42:44;0.50;;;0.50;;
4186;SDS011;2107;52.306;10.484;2024-02-23T05:45:10;0.50;;;0.50;;
4186;SDS011;2107;52.306;10.484;2024-02-23T05:47:39;0.50;;;0.50;;
4186;SDS011;2107;52.306;10.484;2024-02-23T05:50:07;0.60;;;0.60;;
4186;SDS011;2107;52.306;10.484;2024-02-23T05:52:35;0.70;;;0.70;;
4186;SDS011;2107;52.306;10.484;2024-02-23T05:55:02;0.40;;;0.40;;
4186;SDS011;2107;52.306;10.484;2024-02-23T05:57:29;0.60;;;0.60;;
4186;SDS011;2107;52.306;10.484;2024-02-23T05:59:56;0.60;;;0.60;;
4186;SDS011;2107;52.306;10.484;2024-02-23T06:02:23;0.60;;;0.60;;
4186;SDS011;2107;52.306;10.484;2024-02-23T06:04:52;0.50;;;0.50;;
4186;SDS011;2107;52.306;10.484;2024-02-23T06:07:18;0.47;;;0.47;;
4186;SDS011;2107;52.306;10.484;2024-02-23T06:09:52;0.60;;;0.60;;
4186;SDS011;2107;52.306;10.484;2024-02-23T06:12:18;0.60;;;0.60;;
4186;SDS011;2107;52.306;10.484;2024-02-23T06:14:45;0.80;;;0.80;;
4186;SDS011;2107;52.306;10.484;2024-02-23T06:17:12;1.00;;;1.00;;
4186;SDS011;2107;52.306;10.484;2024-02-23T06:19:41;1.20;;;1.20;;
4186;SDS011;2107;52.306;10.484;2024-02-23T06:22:10;1.10;;;1.10;;
4186;SDS011;2107;52.306;10.484;2024-02-23T06:24:37;1.00;;;1.00;;
4186;SDS011;2107;52.306;10.484;2024-02-23T06:27:04;1.03;;;1.03;;
4186;SDS011;2107;52.306;10.484;2024-02-23T06:29:31;1.20;;;1.20;;
4186;SDS011;2107;52.306;10.484;2024-02-23T06:31:58;1.20;;;1.20;;
4186;SDS011;2107;52.306;10.484;2024-02-23T06:34:28;1.23;;;1.23;;
4186;SDS011;2107;52.306;10.484;2024-02-23T06:36:59;1.20;;;1.20;;
4186;SDS011;2107;52.306;10.484;2024-02-23T06:39:27;1.40;;;1.40;;
4186;SDS011;2107;52.306;10.484;2024-02-23T06:41:54;1.00;;;1.00;;
4186;SDS011;2107;52.306;10.484;2024-02-23T06:44:22;0.97;;;0.97;;
4186;SDS011;2107;52.306;10.484;2024-02-23T06:46:49;1.00;;;1.00;;
4186;SDS011;2107;52.306;10.484;2024-02-23T06:49:16;1.10;;;1.10;;
4186;SDS011;2107;52.306;10.484;2024-02-23T06:51:43;1.20;;;1.20;;
4186;SDS011;2107;52.306;10.484;2024-02-23T06:54:10;1.10;;;1.10;;
4186;SDS011;2107;52.306;10.484;2024-02-23T06:56:38;1.20;;;1.20;;
4186;SDS011;2107;52.306;10.484;2024-02-23T06:59:05;1.30;;;1.30;;
4186;SDS011;2107;52.306;10.484;2024-02-23T07:01:33;1.40;;;1.40;;
4186;SDS011;2107;52.306;10.484;2024-02-23T07:04:02;1.30;;;1.30;;
4186;SDS011;2107;52.306;10.484;2024-02-23T07:06:29;1.30;;;1.30;;
4186;SDS011;2107;52.306;10.484;2024-02-23T07:08:57;1.70;;;1.70;;
4186;SDS011;2107;52.306;10.484;2024-02-23T07:11:24;1.50;;;1.50;;
4186;SDS011;2107;52.306;10.484;2024-02-23T07:13:52;1.40;;;1.40;;
4186;SDS011;2107;52.306;10.484;2024-02-23T07:16:19;1.70;;;1.70;;
4186;SDS011;2107;52.306;10.484;2024-02-23T07:18:46;1.40;;;1.40;;
4186;SDS011;2107;52.306;10.484;2024-02-23T07:21:13;1.70;;;1.70;;
4186;SDS011;2107;52.306;10.484;2024-02-23T07:23:42;1.40;;;1.40;;
4186;SDS011;2107;52.306;10.484;2024-02-23T07:26:09;1.00;;;1.00;;
4186;SDS011;2107;52.306;10.484;2024-02-23T07:28:36;1.10;;;1.10;;
4186;SDS011;2107;52.306;10.484;2024-02-23T07:31:04;0.90;;;0.90;;
4186;SDS011;2107;52.306;10.484;2024-02-23T07:33:31;1.10;;;1.10;;
4186;SDS011;2107;52.306;10.484;2024-02-23T07:35:58;0.90;;;0.90;;
4186;SDS011;2107;52.306;10.484;2024-02-23T07:38:25;0.80;;;0.80;;
4186;SDS011;2107;52.306;10.484;2024-02-23T07:40:53;0.70;;;0.70;;
4186;SDS011;2107;52.306;10.484;2024-02-23T07:43:20;0.90;;;0.90;;
4186;SDS011;2107;52.306;10.484;2024-02-23T07:45:50;0.90;;;0.90;;
4186;SDS011;2107;52.306;10.484;2024-02-23T07:48:18;0.73;;;0.73;;
4186;SDS011;2107;52.306;10.484;2024-02-23T07:50:45;0.80;;;0.80;;
4186;SDS011;2107;52.306;10.484;2024-02-23T07:53:12;0.80;;;0.80;;
4186;SDS011;2107;52.306;10.484;2024-02-23T07:55:39;1.00;;;1.00;;
4186;SDS011;2107;52.306;10.484;2024-02-23T07:58:06;0.90;;;0.90;;
4186;SDS011;2107;52.306;10.484;2024-02-23T08:00:33;0.90;;;0.90;;
4186;SDS011;2107;52.306;10.484;2024-02-23T08:03:03;0.80;;;0.80;;
4186;SDS011;2107;52.306;10.484;2024-02-23T08:05:31;1.00;;;1.00;;
4186;SDS011;2107;52.306;10.484;2024-02-23T08:07:58;1.10;;;1.10;;
4186;SDS011;2107;52.306;10.484;2024-02-23T08:10:27;1.00;;;1.00;;
4186;SDS011;2107;52.306;10.484;2024-02-23T08:12:57;1.00;;;1.00;;
4186;SDS011;2107;52.306;10.484;2024-02-23T08:15:25;1.00;;;1.00;;
4186;SDS011;2107;52.306;10.484;2024-02-23T08:17:52;1.30;;;1.30;;
4186;SDS011;2107;52.306;10.484;2024-02-23T08:20:19;1.20;;;1.20;;
4186;SDS011;2107;52.306;10.484;2024-02-23T08:22:47;1.10;;;1.10;;
4186;SDS011;2107;52.306;10.484;2024-02-23T08:25:14;1.20;;;1.20;;
4186;SDS011;2107;52.306;10.484;2024-02-23T08:27:41;1.20;;;1.20;;
4186;SDS011;2107;52.306;10.484;2024-02-23T08:30:08;1.00;;;1.00;;
4186;SDS011;2107;52.306;10.484;2024-02-23T08:32:37;1.10;;;1.10;;
4186;SDS011;2107;52.306;10.484;2024-02-23T08:35:04;1.00;;;1.00;;
4186;SDS011;2107;52.306;10.484;2024-02-23T08:37:31;1.20;;;1.20;;
4186;SDS011;2107;52.306;10.484;2024-02-23T08:39:59;1.17;;;1.17;;
4186;SDS011;2107;52.306;10.484;2024-02-23T08:42:26;0.93;;;0.93;;
4186;SDS011;2107;52.306;10.484;2024-02-23T08:44:53;1.10;;;1.10;;
4186;SDS011;2107;52.306;10.484;2024-02-23T08:47:20;1.00;;;1.00;;
4186;SDS011;2107;52.306;10.484;2024-02-23T08:49:47;1.00;;;1.00;;
4186;SDS011;2107;52.306;10.484;2024-02-23T08:52:14;0.83;;;0.83;;
4186;SDS011;2107;52.306;10.484;2024-02-23T08:54:41;1.10;;;1.10;;
4186;SDS011;2107;52.306;10.484;2024-02-23T08:57:09;1.00;;;1.00;;
4186;SDS011;2107;52.306;10.484;2024-02-23T08:59:36;0.80;;;0.80;;
4186;SDS011;2107;52.306;10.484;2024-02-23T09:02:03;0.83;;;0.83;;
4186;SDS011;2107;52.306;10.484;2024-02-23T09:04:30;0.80;;;0.80;;
4186;SDS011;2107;52.306;10.484;2024-02-23T09:06:57;0.90;;;0.90;;
4186;SDS011;2107;52.306;10.484;2024-02-23T09:09:23;0.90;;;0.90;;
4186;SDS011;2107;52.306;10.484;2024-02-23T09:11:50;1.00;;;1.00;;
4186;SDS011;2107;52.306;10.484;2024-02-23T09:14:18;1.00;;;1.00;;
4186;SDS011;2107;52.306;10.484;2024-02-23T09:16:45;1.10;;;1.10;;
4186;SDS011;2107;52.306;10.484;2024-02-23T09:19:16;1.20;;;1.20;;
4186;SDS011;2107;52.306;10.484;2024-02-23T09:21:43;0.90;;;0.90;;
4186;SDS011;2107;52.306;10.484;2024-02-23T09:24:10;0.83;;;0.83;;
4186;SDS011;2107;52.306;10.484;2024-02-23T09:26:37;0.90;;;0.90;;
4186;SDS011;2107;52.306;10.484;2024-02-23T09:29:05;1.20;;;1.20;;
4186;SDS011;2107;52.306;10.484;2024-02-23T09:31:33;0.80;;;0.80;;
4186;SDS011;2107;52.306;10.484;2024-02-23T09:34:00;1.00;;;1.00;;
4186;SDS011;2107;52.306;10.484;2024-02-23T09:36:27;1.10;;;1.10;;
4186;SDS011;2107;52.306;10.484;2024-02-23T09:38:55;0.90;;;0.90;;
4186;SDS011;2107;52.306;10.484;2024-02-23T09:41:22;1.10;;;1.10;;
4186;SDS011;2107;52.306;10.484;2024-02-23T09:43:50;0.90;;;0.90;;
4186;SDS011;2107;52.306;10.484;2024-02-23T09:46:18;1.00;;;1.00;;
4186;SDS011;2107;52.306;10.484;2024-02-23T09:48:47;0.90;;;0.90;;
4186;SDS011;2107;52.306;10.484;2024-02-23T09:51:15;1.20;;;1.20;;
4186;SDS011;2107;52.306;10.484;2024-02-23T09:53:42;1.30;;;1.30;;
4186;SDS011;2107;52.306;10.484;2024-02-23T09:56:10;1.30;;;1.30;;
4186;SDS011;2107;52.306;10.484;2024-02-23T09:58:37;1.30;;;1.30;;
4186;SDS011;2107;52.306;10.484;2024-02-23T10:01:05;1.10;;;1.10;;
4186;SDS011;2107;52.306;10.484;2024-02-23T10:03:32;1.00;;;1.00;;
4186;SDS011;2107;52.306;10.484;2024-02-23T10:06:00;1.00;;;1.00;;
4186;SDS011;2107;52.306;10.484;2024-02-23T10:08:27;0.90;;;0.90;;
4186;SDS011;2107;52.306;10.484;2024-02-23T10:10:54;1.30;;;1.30;;
4186;SDS011;2107;52.306;10.484;2024-02-23T10:13:21;1.40;;;1.40;;
4186;SDS011;2107;52.306;10.484;2024-02-23T10:15:49;1.20;;;1.20;;
4186;SDS011;2107;52.306;10.484;2024-02-23T10:18:16;1.13;;;1.13;;
4186;SDS011;2107;52.306;10.484;2024-02-23T10:20:43;0.80;;;0.80;;
4186;SDS011;2107;52.306;10.484;2024-02-23T10:23:11;1.00;;;1.00;;
4186;SDS011;2107;52.306;10.484;2024-02-23T10:25:38;1.00;;;1.00;;
4186;SDS011;2107;52.306;10.484;2024-02-23T10:28:06;1.00;;;1.00;;
4186;SDS011;2107;52.306;10.484;2024-02-23T10:30:36;0.93;;;0.93;;
4186;SDS011;2107;52.306;10.484;2024-02-23T10:33:04;0.90;;;0.90;;
4186;SDS011;2107;52.306;10.484;2024-02-23T10:35:32;1.10;;;1.10;;
4186;SDS011;2107;52.306;10.484;2024-02-23T10:38:00;1.17;;;1.17;;
4186;SDS011;2107;52.306;10.484;2024-02-23T10:40:31;1.30;;;1.30;;
4186;SDS011;2107;52.306;10.484;2024-02-23T10:43:02;1.40;;;1.40;;
4186;SDS011;2107;52.306;10.484;2024-02-23T10:45:32;1.30;;;1.30;;
4186;SDS011;2107;52.306;10.484;2024-02-23T10:48:01;1.20;;;1.20;;
4186;SDS011;2107;52.306;10.484;2024-02-23T10:50:28;1.57;;;1.57;;
4186;SDS011;2107;52.306;10.484;2024-02-23T10:52:57;1.10;;;1.10;;
4186;SDS011;2107;52.306;10.484;2024-02-23T10:55:25;1.10;;;1.10;;
4186;SDS011;2107;52.306;10.484;2024-02-23T10:57:55;1.00;;;1.00;;
4186;SDS011;2107;52.306;10.484;2024-02-23T11:00:24;1.10;;;1.10;;
4186;SDS011;2107;52.306;10.484;2024-02-23T11:02:51;1.00;;;1.00;;
4186;SDS011;2107;52.306;10.484;2024-02-23T11:05:21;1.03;;;1.03;;
4186;SDS011;2107;52.306;10.484;2024-02-23T11:07:49;1.00;;;1.00;;
4186;SDS011;2107;52.306;10.484;2024-02-23T11:10:17;1.10;;;1.10;;
4186;SDS011;2107;52.306;10.484;2024-02-23T11:12:57;1.07;;;1.07;;
4186;SDS011;2107;52.306;10.484;2024-02-23T11:15:26;1.20;;;1.20;;
4186;SDS011;2107;52.306;10.484;2024-02-23T11:17:53;1.00;;;1.00;;
4186;SDS011;2107;52.306;10.484;2024-02-23T11:20:21;1.00;;;1.00;;
4186;SDS011;2107;52.306;10.484;2024-02-23T11:22:51;1.10;;;1.10;;
4186;SDS011;2107;52.306;10.484;2024-02-23T11:25:19;1.30;;;1.30;;
4186;SDS011;2107;52.306;10.484;2024-02-23T11:27:49;1.20;;;1.20;;
4186;SDS011;2107;52.306;10.484;2024-02-23T11:30:17;1.30;;;1.30;;
4186;SDS011;2107;52.306;10.484;2024-02-23T11:32:45;1.10;;;1.10;;
4186;SDS011;2107;52.306;10.484;2024-02-23T11:35:14;1.20;;;1.20;;
4186;SDS011;2107;52.306;10.484;2024-02-23T11:37:48;1.20;;;1.20;;
4186;SDS011;2107;52.306;10.484;2024-02-23T11:40:22;1.43;;;1.43;;
4186;SDS011;2107;52.306;10.484;2024-02-23T11:42:49;1.00;;;1.00;;
4186;SDS011;2107;52.306;10.484;2024-02-23T11:45:18;1.40;;;1.40;;
4186;SDS011;2107;52.306;10.484;2024-02-23T11:47:46;1.20;;;1.20;;
4186;SDS011;2107;52.306;10.484;2024-02-23T11:50:13;1.10;;;1.10;;
4186;SDS011;2107;52.306;10.484;2024-02-23T11:52:40;1.43;;;1.43;;
4186;SDS011;2107;52.306;10.484;2024-02-23T11:55:07;1.10;;;1.10;;
4186;SDS011;2107;52.306;10.484;2024-02-23T11:57:34;1.30;;;1.30;;
4186;SDS011;2107;52.306;10.484;2024-02-23T12:00:03;1.60;;;1.60;;
4186;SDS011;2107;52.306;10.484;2024-02-23T12:02:33;1.50;;;1.50;;
4186;SDS011;2107;52.306;10.484;2024-02-23T12:05:01;1.20;;;1.20;;
4186;SDS011;2107;52.306;10.484;2024-02-23T12:07:28;1.40;;;1.40;;
4186;SDS011;2107;52.306;10.484;2024-02-23T12:09:56;1.30;;;1.30;;
4186;SDS011;2107;52.306;10.484;2024-02-23T12:12:23;1.50;;;1.50;;
4186;SDS011;2107;52.306;10.484;2024-02-23T12:14:51;1.30;;;1.30;;
4186;SDS011;2107;52.306;10.484;2024-02-23T12:17:18;1.43;;;1.43;;
4186;SDS011;2107;52.306;10.484;2024-02-23T12:19:50;1.50;;;1.50;;
4186;SDS011;2107;52.306;10.484;2024-02-23T12:22:24;1.40;;;1.40;;
4186;SDS011;2107;52.306;10.484;2024-02-23T12:24:51;1.60;;;1.60;;
4186;SDS011;2107;52.306;10.484;2024-02-23T12:27:18;1.40;;;1.40;;
4186;SDS011;2107;52.306;10.484;2024-02-23T12:29:50;1.70;;;1.70;;
4186;SDS011;2107;52.306;10.484;2024-02-23T12:32:19;1.83;;;1.83;;
4186;SDS011;2107;52.306;10.484;2024-02-23T12:34:46;1.80;;;1.80;;
4186;SDS011;2107;52.306;10.484;2024-02-23T12:37:15;1.90;;;1.90;;
4186;SDS011;2107;52.306;10.484;2024-02-23T12:39:43;1.70;;;1.70;;
4186;SDS011;2107;52.306;10.484;2024-02-23T12:42:10;1.53;;;1.53;;
4186;SDS011;2107;52.306;10.484;2024-02-23T12:44:37;1.40;;;1.40;;
4186;SDS011;2107;52.306;10.484;2024-02-23T12:47:04;1.20;;;1.20;;
4186;SDS011;2107;52.306;10.484;2024-02-23T12:49:31;1.20;;;1.20;;
4186;SDS011;2107;52.306;10.484;2024-02-23T12:52:00;1.20;;;1.20;;
4186;SDS011;2107;52.306;10.484;2024-02-23T12:54:30;1.33;;;1.33;;
4186;SDS011;2107;52.306;10.484;2024-02-23T12:56:57;1.10;;;1.10;;
4186;SDS011;2107;52.306;10.484;2024-02-23T12:59:24;1.20;;;1.20;;
4186;SDS011;2107;52.306;10.484;2024-02-23T13:01:51;1.60;;;1.60;;
4186;SDS011;2107;52.306;10.484;2024-02-23T13:04:18;2.10;;;2.10;;
4186;SDS011;2107;52.306;10.484;2024-02-23T13:06:45;1.90;;;1.90;;
4186;SDS011;2107;52.306;10.484;2024-02-23T13:09:13;1.70;;;1.70;;
4186;SDS011;2107;52.306;10.484;2024-02-23T13:11:41;1.70;;;1.70;;
4186;SDS011;2107;52.306;10.484;2024-02-23T13:14:12;1.87;;;1.87;;
4186;SDS011;2107;52.306;10.484;2024-02-23T13:16:40;1.53;;;1.53;;
4186;SDS011;2107;52.306;10.484;2024-02-23T13:19:09;1.50;;;1.50;;
4186;SDS011;2107;52.306;10.484;2024-02-23T13:21:36;1.50;;;1.50;;
4186;SDS011;2107;52.306;10.484;2024-02-23T13:24:04;1.77;;;1.77;;
4186;SDS011;2107;52.306;10.484;2024-02-23T13:26:32;1.70;;;1.70;;
4186;SDS011;2107;52.306;10.484;2024-02-23T13:29:00;1.40;;;1.40;;
4186;SDS011;2107;52.306;10.484;2024-02-23T13:31:27;1.30;;;1.30;;
4186;SDS011;2107;52.306;10.484;2024-02-23T13:33:54;1.70;;;1.70;;
4186;SDS011;2107;52.306;10.484;2024-02-23T13:36:21;1.50;;;1.50;;
4186;SDS011;2107;52.306;10.484;2024-02-23T13:38:48;1.70;;;1.70;;
4186;SDS011;2107;52.306;10.484;2024-02-23T13:41:16;1.20;;;1.20;;
4186;SDS011;2107;52.306;10.484;2024-02-23T13:43:43;1.50;;;1.50;;
4186;SDS011;2107;52.306;10.484;2024-02-23T13:46:13;1.70;;;1.70;;
4186;SDS011;2107;52.306;10.484;2024-02-23T13:48:42;1.70;;;1.70;;
4186;SDS011;2107;52.306;10.484;2024-02-23T13:51:09;1.90;;;1.90;;
4186;SDS011;2107;52.306;10.484;2024-02-23T13:53:36;1.60;;;1.60;;
4186;SDS011;2107;52.306;10.484;2024-02-23T13:56:04;1.60;;;1.60;;
4186;SDS011;2107;52.306;10.484;2024-02-23T13:58:32;1.80;;;1.80;;
4186;SDS011;2107;52.306;10.484;2024-02-23T14:00:58;2.03;;;2.03;;
4186;SDS011;2107;52.306;10.484;2024-02-23T14:03:29;1.60;;;1.60;;
4186;SDS011;2107;52.306;10.484;2024-02-23T14:05:56;1.60;;;1.60;;
4186;SDS011;2107;52.306;10.484;2024-02-23T14:08:27;1.80;;;1.80;;
4186;SDS011;2107;52.306;10.484;2024-02-23T14:10:54;2.00;;;2.00;;
4186;SDS011;2107;52.306;10.484;2024-02-23T14:13:23;2.03;;;2.03;;
4186;SDS011;2107;52.306;10.484;2024-02-23T14:15:52;1.70;;;1.70;;
4186;SDS011;2107;52.306;10.484;2024-02-23T14:18:20;1.90;;;1.90;;
4186;SDS011;2107;52.306;10.484;2024-02-23T14:20:51;1.70;;;1.70;;
4186;SDS011;2107;52.306;10.484;2024-02-23T14:23:18;2.00;;;2.00;;
4186;SDS011;2107;52.306;10.484;2024-02-23T14:25:45;1.60;;;1.60;;
4186;SDS011;2107;52.306;10.484;2024-02-23T14:28:12;1.73;;;1.73;;
4186;SDS011;2107;52.306;10.484;2024-02-23T14:30:39;1.70;;;1.70;;
4186;SDS011;2107;52.306;10.484;2024-02-23T14:33:08;1.80;;;1.80;;
4186;SDS011;2107;52.306;10.484;2024-02-23T14:35:35;1.80;;;1.80;;
4186;SDS011;2107;52.306;10.484;2024-02-23T14:38:04;1.77;;;1.77;;
4186;SDS011;2107;52.306;10.484;2024-02-23T14:40:30;1.70;;;1.70;;
4186;SDS011;2107;52.306;10.484;2024-02-23T14:43:00;1.90;;;1.90;;
4186;SDS011;2107;52.306;10.484;2024-02-23T14:45:29;1.30;;;1.30;;
4186;SDS011;2107;52.306;10.484;2024-02-23T14:47:57;1.30;;;1.30;;
4186;SDS011;2107;52.306;10.484;2024-02-23T14:50:24;1.57;;;1.57;;
4186;SDS011;2107;52.306;10.484;2024-02-23T14:52:51;1.40;;;1.40;;
4186;SDS011;2107;52.306;10.484;2024-02-23T14:55:23;1.20;;;1.20;;
4186;SDS011;2107;52.306;10.484;2024-02-23T14:57:50;1.50;;;1.50;;
4186;SDS011;2107;52.306;10.484;2024-02-23T15:00:17;1.20;;;1.20;;
4186;SDS011;2107;52.306;10.484;2024-02-23T15:02:47;1.50;;;1.50;;